In Rescue
 
Open Full Screen Window  High Contrast Mode
Wind Gusting 00 knots
05
September 21, 2019 9:37 AM EDT
Weather Information
Wind Direction
  220 °
Wind Speed
  05 kt (6 mph)
Wind Gust
  00 kt (0 mph)
Altimeter
30.18 in
Visibility
10 SM
Temperature
23° C
73° F
Dewpoint
20° C
68° F
Humidity
83%
1hr Rain Fall
00.00 in.
24hr Rain Fall
00.00 in.
Sky Condition
Clear
VFR

METAR KIRS 211337Z AUTO 22005KT 10SM CLR 23/20 A3018 RMK AO2 T02340196

FAA Disclaimer: The data displayed is for advisory purposes only and is not to be used for flight planning or operations.